createdAt,value
2023-05-19T00:00:53.992Z,8.52
2023-05-19T00:03:52.672Z,6.68
2023-05-19T00:06:41.590Z,7.13
2023-05-19T00:09:29.751Z,7.50
2023-05-19T00:12:18.016Z,6.70
2023-05-19T00:15:09.119Z,8.32
2023-05-19T00:17:56.945Z,6.57
2023-05-19T00:20:44.929Z,8.98
2023-05-19T00:23:32.797Z,7.40
2023-05-19T00:26:21.967Z,8.00
2023-05-19T00:29:19.863Z,7.40
2023-05-19T00:32:08.775Z,9.98
2023-05-19T00:34:56.304Z,7.50
2023-05-19T00:37:43.937Z,6.25
2023-05-19T00:40:33.348Z,6.80
2023-05-19T00:43:21.039Z,6.88
2023-05-19T00:46:08.604Z,7.07
2023-05-19T00:48:57.300Z,8.00
2023-05-19T00:51:45.009Z,8.38
2023-05-19T00:54:33.530Z,10.27
2023-05-19T00:57:21.815Z,5.97
2023-05-19T01:00:11.326Z,10.15
2023-05-19T01:02:59.333Z,6.50
2023-05-19T01:05:49.899Z,6.82
2023-05-19T01:08:39.052Z,6.43
2023-05-19T01:11:26.473Z,5.43
2023-05-19T01:14:14.325Z,5.93
2023-05-19T01:17:09.994Z,6.32
2023-05-19T01:20:08.239Z,8.50
2023-05-19T01:23:24.075Z,6.63
2023-05-19T01:26:29.285Z,7.63
2023-05-19T01:29:39.928Z,6.45
2023-05-19T01:32:31.724Z,6.45
2023-05-19T01:35:19.673Z,6.45
2023-05-19T01:38:10.149Z,5.45
2023-05-19T01:40:58.622Z,6.70
2023-05-19T01:43:46.618Z,5.47
2023-05-19T01:46:34.762Z,7.30
2023-05-19T01:49:25.569Z,6.40
2023-05-19T01:52:15.088Z,6.20
2023-05-19T01:55:02.977Z,6.95
2023-05-19T01:57:59.877Z,6.03
2023-05-19T02:00:54.115Z,6.32
2023-05-19T02:03:56.859Z,6.93
2023-05-19T02:06:51.080Z,4.43
2023-05-19T02:09:45.294Z,7.28
2023-05-19T02:12:37.795Z,5.93
2023-05-19T02:15:27.265Z,6.88
2023-05-19T02:18:18.102Z,7.40
2023-05-19T02:21:13.419Z,7.15
2023-05-19T02:24:02.680Z,7.70
2023-05-19T02:26:50.491Z,7.97
2023-05-19T02:29:39.497Z,7.82
2023-05-19T02:32:27.183Z,8.77
2023-05-19T02:35:14.771Z,7.35
2023-05-19T02:38:02.596Z,9.13
2023-05-19T02:40:52.743Z,8.80
2023-05-19T02:43:40.389Z,5.55
2023-05-19T02:46:28.011Z,7.18
2023-05-19T02:49:15.952Z,9.00
2023-05-19T02:52:04.131Z,8.82
2023-05-19T02:54:52.926Z,8.57
2023-05-19T02:57:42.413Z,9.85
2023-05-19T03:00:30.480Z,9.63
2023-05-19T03:03:18.477Z,9.20
2023-05-19T03:06:08.816Z,10.18
2023-05-19T03:08:56.488Z,9.27
2023-05-19T03:11:44.230Z,12.30
2023-05-19T03:14:34.023Z,10.13
2023-05-19T03:17:21.808Z,9.07
2023-05-19T03:20:10.897Z,8.48
2023-05-19T03:22:59.502Z,8.15
2023-05-19T03:25:47.885Z,9.07
2023-05-19T03:28:36.024Z,7.82
2023-05-19T03:31:26.901Z,8.85
2023-05-19T03:34:15.102Z,12.38
2023-05-19T03:37:03.094Z,8.50
2023-05-19T03:39:50.780Z,12.18
2023-05-19T03:42:38.384Z,11.45
2023-05-19T03:45:26.710Z,9.10
2023-05-19T03:48:17.976Z,7.65
2023-05-19T03:51:30.171Z,9.85
2023-05-19T03:54:25.536Z,8.95
2023-05-19T03:57:13.660Z,9.48
2023-05-19T04:00:01.454Z,10.00
2023-05-19T04:03:00.622Z,8.50
2023-05-19T04:05:49.992Z,11.48
2023-05-19T04:08:37.961Z,9.77
2023-05-19T04:11:25.749Z,9.13
2023-05-19T04:14:13.225Z,9.98
2023-05-19T04:17:00.842Z,8.20
2023-05-19T04:19:48.380Z,10.88
2023-05-19T04:22:37.334Z,12.07
2023-05-19T04:25:25.490Z,9.63
2023-05-19T04:28:13.172Z,9.75
2023-05-19T04:31:01.398Z,10.65
2023-05-19T04:33:49.813Z,10.10
2023-05-19T04:36:37.877Z,9.35
2023-05-19T04:39:26.783Z,12.25
2023-05-19T04:42:14.514Z,9.80
2023-05-19T04:45:03.310Z,12.48
2023-05-19T04:47:52.799Z,12.07
2023-05-19T04:50:44.596Z,8.38
2023-05-19T04:53:32.161Z,7.78
2023-05-19T04:56:22.158Z,10.48
2023-05-19T04:59:11.008Z,9.20
2023-05-19T05:01:58.826Z,12.10
2023-05-19T05:04:48.323Z,9.07
2023-05-19T05:07:35.897Z,8.63
2023-05-19T05:10:23.558Z,11.75
2023-05-19T05:13:13.519Z,7.93
2023-05-19T05:16:01.988Z,8.98
2023-05-19T05:18:50.003Z,6.18
2023-05-19T05:21:38.830Z,7.68
2023-05-19T05:24:27.161Z,8.20
2023-05-19T05:27:19.153Z,8.48
2023-05-19T05:30:09.948Z,9.18
2023-05-19T05:32:58.672Z,7.13
2023-05-19T05:35:52.012Z,8.45
2023-05-19T05:38:39.600Z,6.97
2023-05-19T05:41:29.383Z,5.55
2023-05-19T05:44:16.994Z,6.80
2023-05-19T05:47:08.395Z,6.68
2023-05-19T05:49:57.075Z,8.52
2023-05-19T05:52:48.370Z,7.75
2023-05-19T05:55:38.784Z,7.80
2023-05-19T05:58:28.631Z,5.68
2023-05-19T06:01:17.909Z,5.80
2023-05-19T06:04:07.152Z,6.68
2023-05-19T06:07:01.001Z,5.03
2023-05-19T06:09:51.756Z,5.88
2023-05-19T06:12:42.616Z,7.15
2023-05-19T06:15:31.267Z,6.32
2023-05-19T06:18:27.228Z,5.65
2023-05-19T06:21:17.607Z,4.68
2023-05-19T06:24:05.548Z,4.63
2023-05-19T06:26:53.229Z,5.13
2023-05-19T06:29:40.713Z,7.50
2023-05-19T06:32:29.789Z,6.13
2023-05-19T06:35:19.121Z,7.32
2023-05-19T06:38:08.385Z,7.25
2023-05-19T06:40:56.048Z,9.55
2023-05-19T06:43:44.084Z,7.22
2023-05-19T06:46:34.630Z,8.50
2023-05-19T06:49:22.220Z,5.95
2023-05-19T06:52:10.357Z,6.07
2023-05-19T06:54:59.345Z,4.43
2023-05-19T06:57:46.974Z,5.40
2023-05-19T07:00:36.261Z,5.03
2023-05-19T07:03:26.130Z,5.60
2023-05-19T07:06:15.479Z,6.47
2023-05-19T07:09:05.487Z,3.97
2023-05-19T07:11:56.329Z,8.70
2023-05-19T07:14:44.141Z,4.82
2023-05-19T07:17:32.773Z,4.13
2023-05-19T07:20:21.090Z,4.03
2023-05-19T07:23:09.174Z,3.45
2023-05-19T07:25:57.520Z,4.72
2023-05-19T07:28:46.586Z,4.10
2023-05-19T07:31:34.233Z,3.60
2023-05-19T07:34:22.004Z,3.67
2023-05-19T07:37:09.804Z,4.78
2023-05-19T07:39:57.415Z,5.15
2023-05-19T07:42:44.795Z,2.47
2023-05-19T07:45:33.816Z,5.07
2023-05-19T07:48:22.534Z,3.58
2023-05-19T07:51:10.795Z,5.10
2023-05-19T07:53:58.372Z,3.67
2023-05-19T07:56:46.190Z,6.18
2023-05-19T07:59:33.721Z,3.85
2023-05-19T08:02:22.708Z,6.93
2023-05-19T08:05:11.643Z,4.93
2023-05-19T08:07:59.199Z,5.70
2023-05-19T08:10:46.816Z,7.00
2023-05-19T08:13:34.818Z,3.55
2023-05-19T08:16:22.302Z,4.55
2023-05-19T08:19:14.890Z,5.60
2023-05-19T08:22:02.436Z,9.52
2023-05-19T08:24:51.858Z,5.45
2023-05-19T08:27:39.522Z,7.43
2023-05-19T08:30:26.945Z,5.00
2023-05-19T08:33:14.900Z,5.03
2023-05-19T08:36:04.191Z,6.03
2023-05-19T08:38:52.005Z,6.45
2023-05-19T08:41:39.261Z,4.38
2023-05-19T08:44:27.438Z,6.03
2023-05-19T08:47:16.285Z,5.22
2023-05-19T08:50:07.728Z,6.13
2023-05-19T08:53:02.709Z,4.22
2023-05-19T08:55:59.077Z,5.05
2023-05-19T08:58:47.812Z,6.18
2023-05-19T09:04:29.957Z,6.72
2023-05-19T09:07:18.953Z,3.47
2023-05-19T09:10:09.321Z,5.47
2023-05-19T09:12:56.883Z,5.60
2023-05-19T09:15:46.771Z,3.70
2023-05-19T09:18:34.545Z,3.90
2023-05-19T09:21:27.935Z,4.05
2023-05-19T09:24:15.849Z,5.75
2023-05-19T09:27:05.024Z,5.57
2023-05-19T09:29:52.430Z,6.82
2023-05-19T09:32:39.882Z,6.38
2023-05-19T09:35:27.488Z,7.43
2023-05-19T09:38:19.305Z,5.97
2023-05-19T09:41:08.421Z,8.57
2023-05-19T09:43:57.544Z,8.57
2023-05-19T09:46:51.864Z,6.40
2023-05-19T09:49:47.088Z,5.53
2023-05-19T09:52:37.265Z,6.57
2023-05-19T09:55:27.529Z,7.15
2023-05-19T09:58:18.898Z,5.65
2023-05-19T10:01:08.364Z,8.88
2023-05-19T10:03:56.377Z,6.32
2023-05-19T10:06:46.241Z,7.78
2023-05-19T10:09:34.654Z,10.00
2023-05-19T10:12:23.106Z,7.07
2023-05-19T10:15:12.478Z,19.42
2023-05-19T10:18:04.251Z,8.80
2023-05-19T10:20:53.370Z,10.48
2023-05-19T10:23:41.329Z,7.35
2023-05-19T10:26:29.848Z,7.45
2023-05-19T10:29:21.614Z,6.80
2023-05-19T10:32:13.355Z,5.45
2023-05-19T10:35:19.767Z,7.40
2023-05-19T10:38:19.392Z,7.35
2023-05-19T10:41:10.138Z,6.47
2023-05-19T10:44:11.032Z,6.03
2023-05-19T10:46:58.796Z,5.88
2023-05-19T10:49:46.857Z,8.90
2023-05-19T10:52:39.106Z,8.15
2023-05-19T10:55:52.091Z,8.05
2023-05-19T10:58:52.165Z,7.45
2023-05-19T11:01:41.741Z,6.35
2023-05-19T11:04:41.226Z,9.93
2023-05-19T11:07:29.901Z,7.57
2023-05-19T11:10:24.682Z,8.45
2023-05-19T11:13:22.605Z,7.03
2023-05-19T11:16:11.221Z,8.10
2023-05-19T11:19:01.093Z,7.00
2023-05-19T11:21:55.043Z,8.93
2023-05-19T11:24:46.236Z,8.38
2023-05-19T11:27:38.338Z,8.48
2023-05-19T11:30:26.025Z,8.48
2023-05-19T11:33:14.333Z,8.13
2023-05-19T11:36:01.937Z,7.70
2023-05-19T11:38:50.166Z,9.38
2023-05-19T11:41:41.672Z,9.98
2023-05-19T11:44:30.713Z,8.95
2023-05-19T11:47:18.657Z,9.25
2023-05-19T11:50:06.864Z,8.93
2023-05-19T11:52:54.854Z,7.43
2023-05-19T11:55:47.676Z,8.20
2023-05-19T11:58:36.103Z,7.80
2023-05-19T12:01:27.121Z,8.93
2023-05-19T12:04:14.754Z,7.00
2023-05-19T12:07:02.735Z,7.53
2023-05-19T12:09:51.778Z,6.60
2023-05-19T12:12:39.654Z,7.70
2023-05-19T12:15:27.204Z,9.65
2023-05-19T12:18:16.011Z,10.43
2023-05-19T12:21:03.990Z,7.90
2023-05-19T12:23:51.826Z,8.48
2023-05-19T12:26:39.536Z,9.52
2023-05-19T12:29:30.573Z,11.70
2023-05-19T12:32:18.582Z,9.82
2023-05-19T12:35:08.518Z,9.95
2023-05-19T12:37:56.301Z,8.43
2023-05-19T12:40:44.354Z,10.35
2023-05-19T12:43:32.779Z,12.40
2023-05-19T12:46:20.709Z,14.10
2023-05-19T12:49:08.521Z,11.75
2023-05-19T12:51:57.476Z,10.88
2023-05-19T12:54:45.205Z,13.77
2023-05-19T12:57:35.222Z,13.88
2023-05-19T13:00:25.730Z,11.27
2023-05-19T13:03:17.369Z,12.25
2023-05-19T13:06:05.476Z,11.43
2023-05-19T13:08:54.534Z,10.98
2023-05-19T13:11:43.724Z,10.45
2023-05-19T13:14:31.280Z,10.50
2023-05-19T13:17:19.520Z,12.07
2023-05-19T13:20:08.565Z,10.95
2023-05-19T13:22:56.104Z,13.02
2023-05-19T13:25:44.958Z,13.25
2023-05-19T13:28:32.874Z,11.77
2023-05-19T13:31:20.816Z,14.93
2023-05-19T13:34:08.649Z,10.75
2023-05-19T13:36:56.833Z,14.00
2023-05-19T13:39:44.727Z,14.82
2023-05-19T13:42:35.238Z,15.23
2023-05-19T13:45:22.728Z,14.35
2023-05-19T13:48:11.840Z,18.80
2023-05-19T13:50:59.670Z,14.75
2023-05-19T13:53:47.490Z,17.90
2023-05-19T13:56:35.560Z,16.45
2023-05-19T13:59:24.786Z,19.33
2023-05-19T14:02:12.854Z,16.02
2023-05-19T14:05:00.363Z,15.18
2023-05-19T14:07:47.862Z,19.13
2023-05-19T14:10:35.894Z,17.63
2023-05-19T14:16:15.607Z,16.45
2023-05-19T14:19:03.436Z,19.20
2023-05-19T14:21:51.776Z,18.23
2023-05-19T14:24:39.174Z,19.92
2023-05-19T14:27:26.853Z,19.20
2023-05-19T14:30:14.821Z,20.67
2023-05-19T14:33:03.956Z,18.52
2023-05-19T14:35:51.822Z,17.23
2023-05-19T14:38:39.472Z,18.20
2023-05-19T14:41:27.346Z,18.20
2023-05-19T14:44:14.769Z,19.30
2023-05-19T14:47:02.991Z,25.20
2023-05-19T14:49:52.174Z,19.45
2023-05-19T14:52:39.517Z,18.25
2023-05-19T14:55:27.004Z,18.70
2023-05-19T14:58:27.524Z,20.92
2023-05-19T15:01:16.443Z,21.77
2023-05-19T15:04:03.870Z,19.85
2023-05-19T15:07:05.710Z,19.70
2023-05-19T15:09:57.098Z,21.50
2023-05-19T15:12:44.778Z,20.38
2023-05-19T15:15:32.571Z,16.42
2023-05-19T15:18:20.655Z,18.80
2023-05-19T15:21:08.761Z,18.83
2023-05-19T15:23:57.891Z,18.00
2023-05-19T15:26:45.825Z,23.35
2023-05-19T15:29:33.375Z,15.90
2023-05-19T15:32:20.830Z,16.58
2023-05-19T15:35:09.636Z,17.25
2023-05-19T15:37:57.020Z,16.10
2023-05-19T15:40:46.088Z,17.08
2023-05-19T15:43:33.695Z,16.50
2023-05-19T15:46:21.208Z,16.25
2023-05-19T15:49:09.249Z,17.42
2023-05-19T15:52:00.706Z,17.38
2023-05-19T15:54:48.937Z,19.02
2023-05-19T15:57:38.110Z,16.23
2023-05-19T16:00:26.403Z,15.10
2023-05-19T16:03:13.895Z,16.23
2023-05-19T16:06:01.960Z,16.08
2023-05-19T16:08:49.963Z,14.63
2023-05-19T16:11:37.280Z,15.82
2023-05-19T16:14:29.591Z,14.50
2023-05-19T16:17:18.136Z,16.83
2023-05-19T16:20:06.679Z,14.52
2023-05-19T16:22:54.425Z,14.20
2023-05-19T16:25:41.806Z,14.68
2023-05-19T16:28:29.447Z,13.60
2023-05-19T16:31:18.492Z,15.38
2023-05-19T16:34:06.231Z,25.45
2023-05-19T16:36:53.626Z,17.30
2023-05-19T16:39:41.581Z,12.63
2023-05-19T16:42:29.260Z,17.73
2023-05-19T16:45:18.458Z,14.05
2023-05-19T16:48:07.985Z,15.18
2023-05-19T16:50:55.681Z,16.55
2023-05-19T16:53:43.324Z,14.07
2023-05-19T16:56:30.878Z,17.50
2023-05-19T16:59:18.381Z,16.17
2023-05-19T17:02:06.270Z,16.92
2023-05-19T17:04:55.508Z,14.93
2023-05-19T17:07:43.137Z,17.83
2023-05-19T17:10:30.694Z,13.75
2023-05-19T17:13:18.548Z,15.05
2023-05-19T17:16:06.474Z,18.63
2023-05-19T17:18:54.154Z,13.43
2023-05-19T17:21:43.482Z,14.55
2023-05-19T17:24:33.294Z,15.68
2023-05-19T17:27:21.117Z,14.98
2023-05-19T17:30:10.226Z,15.48
2023-05-19T17:32:59.312Z,15.32
2023-05-19T17:35:46.968Z,14.75
2023-05-19T17:38:40.223Z,15.05
2023-05-19T17:41:27.915Z,14.05
2023-05-19T17:44:16.080Z,18.33
2023-05-19T17:47:03.698Z,16.85
2023-05-19T17:49:53.058Z,17.00
2023-05-19T17:52:41.486Z,16.13
2023-05-19T17:55:32.066Z,15.48
2023-05-19T17:58:20.858Z,19.60
2023-05-19T18:01:08.956Z,16.80
2023-05-19T18:03:57.362Z,20.35
2023-05-19T18:06:46.148Z,19.60
2023-05-19T18:09:37.938Z,20.17
2023-05-19T18:12:27.037Z,21.27
2023-05-19T18:15:14.944Z,31.80
2023-05-19T18:18:03.323Z,32.92
2023-05-19T18:20:51.010Z,25.17
2023-05-19T18:23:38.366Z,21.20
2023-05-19T18:26:26.066Z,19.27
2023-05-19T18:29:15.108Z,17.35
2023-05-19T18:32:02.779Z,20.15
2023-05-19T18:34:50.264Z,24.00
2023-05-19T18:37:37.684Z,30.45
2023-05-19T18:40:25.618Z,42.25
2023-05-19T18:43:13.369Z,37.72
2023-05-19T18:46:02.220Z,29.00
2023-05-19T18:48:50.749Z,29.90
2023-05-19T18:51:38.291Z,22.58
2023-05-19T18:54:25.810Z,21.98
2023-05-19T18:57:13.724Z,17.77
2023-05-19T19:00:01.611Z,17.05
2023-05-19T19:02:50.649Z,15.77
2023-05-19T19:05:38.199Z,17.30
2023-05-19T19:08:26.025Z,14.48
2023-05-19T19:11:13.686Z,16.83
2023-05-19T19:14:01.581Z,17.42
2023-05-19T19:16:49.372Z,13.02
2023-05-19T19:19:38.426Z,13.65
2023-05-19T19:22:26.377Z,15.43
2023-05-19T19:25:14.147Z,14.98
2023-05-19T19:28:01.754Z,13.88
2023-05-19T19:30:49.981Z,13.00
2023-05-19T19:33:37.617Z,11.23
2023-05-19T19:36:26.789Z,14.20
2023-05-19T19:39:14.772Z,12.70
2023-05-19T19:42:02.690Z,13.50
2023-05-19T19:44:50.483Z,13.10
2023-05-19T19:47:38.145Z,15.98
2023-05-19T19:50:25.537Z,14.27
2023-05-19T19:53:14.296Z,14.82
2023-05-19T19:56:03.783Z,15.77
2023-05-19T19:58:51.778Z,18.60
2023-05-19T20:01:39.304Z,12.35
2023-05-19T20:04:27.698Z,15.05
2023-05-19T20:07:15.270Z,15.82
2023-05-19T20:10:04.723Z,16.35
2023-05-19T20:12:52.301Z,14.85
2023-05-19T20:15:40.893Z,12.30
2023-05-19T20:18:29.964Z,13.45
2023-05-19T20:21:18.066Z,13.27
2023-05-19T20:24:06.246Z,13.18
2023-05-19T20:26:55.128Z,13.13
2023-05-19T20:29:42.806Z,15.73
2023-05-19T20:32:30.230Z,15.27
2023-05-19T20:35:17.945Z,16.42
2023-05-19T20:38:05.702Z,16.02
2023-05-19T20:40:53.769Z,14.18
2023-05-19T20:43:42.593Z,13.63
2023-05-19T20:46:30.374Z,16.60
2023-05-19T20:49:18.058Z,16.73
2023-05-19T20:52:06.413Z,15.52
2023-05-19T20:54:53.915Z,16.20
2023-05-19T20:57:41.557Z,18.27
2023-05-19T21:00:30.979Z,17.75
2023-05-19T21:03:18.470Z,18.60
2023-05-19T21:06:06.728Z,20.77
2023-05-19T21:08:54.151Z,18.73
2023-05-19T21:11:41.938Z,20.77
2023-05-19T21:14:29.361Z,18.63
2023-05-19T21:17:18.897Z,18.60
2023-05-19T21:20:07.495Z,19.67
2023-05-19T21:22:55.340Z,18.88
2023-05-19T21:25:45.114Z,23.73
2023-05-19T21:28:33.267Z,19.73
2023-05-19T21:31:20.712Z,21.83
2023-05-19T21:34:09.681Z,24.98
2023-05-19T21:36:57.343Z,24.30
2023-05-19T21:39:45.163Z,28.90
2023-05-19T21:42:32.545Z,26.45
2023-05-19T21:45:19.906Z,26.70
2023-05-19T21:48:08.150Z,29.63
2023-05-19T21:50:57.805Z,31.02
2023-05-19T21:53:45.671Z,40.28
2023-05-19T21:56:33.161Z,29.85
2023-05-19T21:59:23.278Z,33.47
2023-05-19T22:02:10.760Z,32.47
2023-05-19T22:04:58.192Z,37.42
2023-05-19T22:07:48.228Z,34.55
2023-05-19T22:10:37.209Z,34.25
2023-05-19T22:13:25.274Z,36.80
2023-05-19T22:16:12.970Z,40.25
2023-05-19T22:19:00.844Z,34.20
2023-05-19T22:21:50.340Z,37.58
2023-05-19T22:24:41.676Z,36.53
2023-05-19T22:27:29.519Z,36.97
2023-05-19T22:30:17.504Z,35.05
2023-05-19T22:33:05.263Z,35.72
2023-05-19T22:35:53.033Z,33.88
2023-05-19T22:38:40.891Z,37.72
2023-05-19T22:41:29.898Z,37.25
2023-05-19T22:44:19.621Z,36.83
2023-05-19T22:47:10.233Z,36.65
2023-05-19T22:49:57.854Z,35.15
2023-05-19T22:52:45.606Z,35.53
2023-05-19T22:55:33.482Z,37.67
2023-05-19T22:58:22.744Z,37.45
2023-05-19T23:01:10.435Z,37.50
2023-05-19T23:03:58.212Z,35.60
2023-05-19T23:06:47.214Z,36.10
2023-05-19T23:09:35.004Z,37.08
2023-05-19T23:12:22.797Z,35.97
2023-05-19T23:15:12.499Z,38.53
2023-05-19T23:18:01.368Z,32.78
2023-05-19T23:20:49.077Z,36.50
2023-05-19T23:23:37.049Z,34.00
2023-05-19T23:26:24.988Z,33.30
2023-05-19T23:29:13.614Z,30.42
2023-05-19T23:32:03.142Z,37.13
2023-05-19T23:34:50.562Z,35.88
2023-05-19T23:37:38.555Z,30.50
2023-05-19T23:40:26.311Z,33.85
2023-05-19T23:43:13.912Z,38.03
2023-05-19T23:46:02.460Z,36.63
2023-05-19T23:48:51.340Z,31.92
2023-05-19T23:51:39.168Z,34.92
2023-05-19T23:54:26.798Z,34.33
2023-05-19T23:57:14.265Z,31.00
